sensor_id;sensor_type;location;lat;lon;timestamp;P1;durP1;ratioP1;P2;durP2;ratioP2
13832;SDS011;6987;19.472;-99.276;2022-10-03T00:00:27;2.85;;;2.65;;
13832;SDS011;6987;19.472;-99.276;2022-10-03T00:03:12;3.08;;;2.88;;
13832;SDS011;6987;19.472;-99.276;2022-10-03T00:05:52;3.70;;;2.78;;
13832;SDS011;6987;19.472;-99.276;2022-10-03T00:08:29;3.35;;;2.67;;
13832;SDS011;6987;19.472;-99.276;2022-10-03T00:11:02;4.00;;;2.95;;
13832;SDS011;6987;19.472;-99.276;2022-10-03T00:13:34;7.38;;;3.53;;
13832;SDS011;6987;19.472;-99.276;2022-10-03T00:16:08;3.30;;;3.03;;
13832;SDS011;6987;19.472;-99.276;2022-10-03T00:18:46;3.38;;;2.70;;
13832;SDS011;6987;19.472;-99.276;2022-10-03T00:21:19;6.47;;;3.05;;
13832;SDS011;6987;19.472;-99.276;2022-10-03T00:23:53;2.90;;;2.60;;
13832;SDS011;6987;19.472;-99.276;2022-10-03T00:26:26;3.15;;;2.85;;
13832;SDS011;6987;19.472;-99.276;2022-10-03T00:31:41;4.72;;;2.65;;
13832;SDS011;6987;19.472;-99.276;2022-10-03T00:34:23;3.10;;;2.90;;
13832;SDS011;6987;19.472;-99.276;2022-10-03T00:36:58;2.53;;;2.33;;
13832;SDS011;6987;19.472;-99.276;2022-10-03T00:39:36;3.58;;;2.55;;
13832;SDS011;6987;19.472;-99.276;2022-10-03T00:42:16;3.15;;;2.80;;
13832;SDS011;6987;19.472;-99.276;2022-10-03T00:44:57;2.63;;;2.50;;
13832;SDS011;6987;19.472;-99.276;2022-10-03T00:50:27;7.97;;;2.90;;
13832;SDS011;6987;19.472;-99.276;2022-10-03T00:53:02;9.23;;;3.15;;
13832;SDS011;6987;19.472;-99.276;2022-10-03T00:55:40;4.05;;;3.42;;
13832;SDS011;6987;19.472;-99.276;2022-10-03T00:58:19;3.63;;;3.30;;
13832;SDS011;6987;19.472;-99.276;2022-10-03T01:00:56;3.42;;;3.13;;
13832;SDS011;6987;19.472;-99.276;2022-10-03T01:03:30;5.80;;;3.20;;
13832;SDS011;6987;19.472;-99.276;2022-10-03T01:06:12;3.40;;;3.10;;
13832;SDS011;6987;19.472;-99.276;2022-10-03T01:08:59;3.22;;;2.92;;
13832;SDS011;6987;19.472;-99.276;2022-10-03T01:11:40;3.20;;;2.88;;
13832;SDS011;6987;19.472;-99.276;2022-10-03T01:14:18;8.77;;;3.05;;
13832;SDS011;6987;19.472;-99.276;2022-10-03T01:16:55;3.40;;;3.13;;
13832;SDS011;6987;19.472;-99.276;2022-10-03T01:19:32;3.35;;;3.00;;
13832;SDS011;6987;19.472;-99.276;2022-10-03T01:22:09;3.72;;;3.42;;
13832;SDS011;6987;19.472;-99.276;2022-10-03T01:27:25;3.30;;;3.05;;
13832;SDS011;6987;19.472;-99.276;2022-10-03T01:30:02;3.47;;;3.28;;
13832;SDS011;6987;19.472;-99.276;2022-10-03T01:32:53;3.65;;;3.35;;
13832;SDS011;6987;19.472;-99.276;2022-10-03T01:35:26;3.65;;;3.35;;
13832;SDS011;6987;19.472;-99.276;2022-10-03T01:38:02;5.40;;;3.38;;
13832;SDS011;6987;19.472;-99.276;2022-10-03T01:40:34;6.10;;;3.60;;
13832;SDS011;6987;19.472;-99.276;2022-10-03T01:43:12;4.32;;;3.92;;
13832;SDS011;6987;19.472;-99.276;2022-10-03T01:45:48;4.30;;;3.90;;
13832;SDS011;6987;19.472;-99.276;2022-10-03T01:48:21;5.10;;;4.60;;
13832;SDS011;6987;19.472;-99.276;2022-10-03T01:50:57;5.35;;;4.10;;
13832;SDS011;6987;19.472;-99.276;2022-10-03T01:53:30;5.75;;;4.05;;
13832;SDS011;6987;19.472;-99.276;2022-10-03T01:56:02;4.85;;;4.00;;
13832;SDS011;6987;19.472;-99.276;2022-10-03T01:58:35;6.50;;;3.63;;
13832;SDS011;6987;19.472;-99.276;2022-10-03T02:01:11;6.32;;;4.53;;
13832;SDS011;6987;19.472;-99.276;2022-10-03T02:03:43;5.70;;;4.53;;
13832;SDS011;6987;19.472;-99.276;2022-10-03T02:06:16;3.83;;;3.55;;
13832;SDS011;6987;19.472;-99.276;2022-10-03T02:08:48;4.28;;;3.97;;
13832;SDS011;6987;19.472;-99.276;2022-10-03T02:11:25;5.00;;;4.65;;
13832;SDS011;6987;19.472;-99.276;2022-10-03T02:13:57;4.72;;;4.43;;
13832;SDS011;6987;19.472;-99.276;2022-10-03T02:16:29;7.15;;;4.50;;
13832;SDS011;6987;19.472;-99.276;2022-10-03T02:19:02;4.55;;;4.25;;
13832;SDS011;6987;19.472;-99.276;2022-10-03T02:21:34;5.45;;;4.95;;
13832;SDS011;6987;19.472;-99.276;2022-10-03T02:24:17;5.45;;;5.05;;
13832;SDS011;6987;19.472;-99.276;2022-10-03T02:26:55;5.13;;;4.78;;
13832;SDS011;6987;19.472;-99.276;2022-10-03T02:32:23;6.68;;;5.65;;
13832;SDS011;6987;19.472;-99.276;2022-10-03T02:40:42;6.10;;;5.47;;
13832;SDS011;6987;19.472;-99.276;2022-10-03T02:46:09;6.05;;;5.45;;
13832;SDS011;6987;19.472;-99.276;2022-10-03T02:48:58;5.88;;;5.47;;
13832;SDS011;6987;19.472;-99.276;2022-10-03T02:57:17;6.53;;;5.88;;
13832;SDS011;6987;19.472;-99.276;2022-10-03T03:02:53;6.15;;;5.60;;
13832;SDS011;6987;19.472;-99.276;2022-10-03T03:05:42;5.82;;;5.38;;
13832;SDS011;6987;19.472;-99.276;2022-10-03T03:08:36;7.22;;;5.70;;
13832;SDS011;6987;19.472;-99.276;2022-10-03T03:11:16;5.75;;;5.32;;
13832;SDS011;6987;19.472;-99.276;2022-10-03T03:19:33;11.90;;;5.85;;
13832;SDS011;6987;19.472;-99.276;2022-10-03T03:22:08;6.47;;;5.85;;
13832;SDS011;6987;19.472;-99.276;2022-10-03T03:24:44;6.80;;;5.82;;
13832;SDS011;6987;19.472;-99.276;2022-10-03T03:27:33;5.97;;;5.50;;
13832;SDS011;6987;19.472;-99.276;2022-10-03T03:30:04;6.25;;;5.85;;
13832;SDS011;6987;19.472;-99.276;2022-10-03T03:32:37;6.55;;;6.07;;
13832;SDS011;6987;19.472;-99.276;2022-10-03T03:35:11;6.85;;;6.35;;
13832;SDS011;6987;19.472;-99.276;2022-10-03T03:37:45;6.97;;;6.40;;
13832;SDS011;6987;19.472;-99.276;2022-10-03T03:40:24;6.28;;;5.78;;
13832;SDS011;6987;19.472;-99.276;2022-10-03T03:43:01;7.05;;;6.45;;
13832;SDS011;6987;19.472;-99.276;2022-10-03T03:45:36;7.47;;;6.88;;
13832;SDS011;6987;19.472;-99.276;2022-10-03T03:48:17;7.32;;;6.72;;
13832;SDS011;6987;19.472;-99.276;2022-10-03T03:50:53;8.77;;;7.93;;
13832;SDS011;6987;19.472;-99.276;2022-10-03T03:53:31;8.35;;;7.60;;
13832;SDS011;6987;19.472;-99.276;2022-10-03T03:56:13;8.65;;;7.78;;
13832;SDS011;6987;19.472;-99.276;2022-10-03T03:58:49;10.00;;;9.00;;
13832;SDS011;6987;19.472;-99.276;2022-10-03T04:01:28;10.88;;;9.73;;
13832;SDS011;6987;19.472;-99.276;2022-10-03T04:04:03;9.55;;;8.70;;
13832;SDS011;6987;19.472;-99.276;2022-10-03T04:06:38;9.95;;;8.68;;
13832;SDS011;6987;19.472;-99.276;2022-10-03T04:12:01;10.25;;;9.45;;
13832;SDS011;6987;19.472;-99.276;2022-10-03T04:14:39;11.57;;;10.48;;
13832;SDS011;6987;19.472;-99.276;2022-10-03T04:17:14;10.63;;;9.63;;
13832;SDS011;6987;19.472;-99.276;2022-10-03T04:20:07;12.43;;;11.00;;
13832;SDS011;6987;19.472;-99.276;2022-10-03T04:22:46;16.48;;;11.68;;
13832;SDS011;6987;19.472;-99.276;2022-10-03T04:28:22;11.55;;;10.60;;
13832;SDS011;6987;19.472;-99.276;2022-10-03T04:31:02;12.93;;;11.68;;
13832;SDS011;6987;19.472;-99.276;2022-10-03T04:33:43;13.38;;;11.98;;
13832;SDS011;6987;19.472;-99.276;2022-10-03T04:36:29;14.45;;;13.05;;
13832;SDS011;6987;19.472;-99.276;2022-10-03T04:39:03;14.85;;;13.25;;
13832;SDS011;6987;19.472;-99.276;2022-10-03T04:41:36;15.27;;;13.68;;
13832;SDS011;6987;19.472;-99.276;2022-10-03T04:44:10;16.00;;;14.40;;
13832;SDS011;6987;19.472;-99.276;2022-10-03T04:46:41;14.35;;;12.95;;
13832;SDS011;6987;19.472;-99.276;2022-10-03T04:49:13;15.38;;;12.90;;
13832;SDS011;6987;19.472;-99.276;2022-10-03T04:51:48;13.65;;;12.27;;
13832;SDS011;6987;19.472;-99.276;2022-10-03T04:54:22;13.93;;;11.80;;
13832;SDS011;6987;19.472;-99.276;2022-10-03T04:56:57;14.52;;;13.02;;
13832;SDS011;6987;19.472;-99.276;2022-10-03T04:59:33;14.27;;;12.88;;
13832;SDS011;6987;19.472;-99.276;2022-10-03T05:02:07;14.07;;;12.60;;
13832;SDS011;6987;19.472;-99.276;2022-10-03T05:04:38;14.63;;;13.27;;
13832;SDS011;6987;19.472;-99.276;2022-10-03T05:07:13;15.80;;;14.10;;
13832;SDS011;6987;19.472;-99.276;2022-10-03T05:09:47;14.82;;;13.05;;
13832;SDS011;6987;19.472;-99.276;2022-10-03T05:12:18;18.35;;;13.63;;
13832;SDS011;6987;19.472;-99.276;2022-10-03T05:17:39;16.55;;;13.77;;
13832;SDS011;6987;19.472;-99.276;2022-10-03T05:20:13;14.40;;;13.00;;
13832;SDS011;6987;19.472;-99.276;2022-10-03T05:22:49;15.50;;;13.93;;
13832;SDS011;6987;19.472;-99.276;2022-10-03T05:25:25;14.60;;;13.10;;
13832;SDS011;6987;19.472;-99.276;2022-10-03T05:28:00;15.18;;;13.68;;
13832;SDS011;6987;19.472;-99.276;2022-10-03T05:30:34;15.10;;;13.73;;
13832;SDS011;6987;19.472;-99.276;2022-10-03T05:33:08;17.08;;;14.02;;
13832;SDS011;6987;19.472;-99.276;2022-10-03T05:35:46;17.73;;;13.65;;
13832;SDS011;6987;19.472;-99.276;2022-10-03T05:38:32;14.75;;;13.25;;
13832;SDS011;6987;19.472;-99.276;2022-10-03T05:41:07;15.20;;;13.57;;
13832;SDS011;6987;19.472;-99.276;2022-10-03T05:43:48;16.10;;;14.63;;
13832;SDS011;6987;19.472;-99.276;2022-10-03T05:46:28;15.95;;;14.43;;
13832;SDS011;6987;19.472;-99.276;2022-10-03T05:49:06;19.25;;;14.52;;
13832;SDS011;6987;19.472;-99.276;2022-10-03T05:54:55;16.88;;;15.15;;
13832;SDS011;6987;19.472;-99.276;2022-10-03T05:57:38;16.95;;;14.55;;
13832;SDS011;6987;19.472;-99.276;2022-10-03T06:00:14;16.27;;;14.57;;
13832;SDS011;6987;19.472;-99.276;2022-10-03T06:02:55;17.52;;;15.52;;
13832;SDS011;6987;19.472;-99.276;2022-10-03T06:05:30;17.58;;;15.32;;
13832;SDS011;6987;19.472;-99.276;2022-10-03T06:08:18;16.92;;;14.98;;
13832;SDS011;6987;19.472;-99.276;2022-10-03T06:10:52;15.82;;;14.32;;
13832;SDS011;6987;19.472;-99.276;2022-10-03T06:13:30;18.00;;;14.70;;
13832;SDS011;6987;19.472;-99.276;2022-10-03T06:16:07;18.63;;;15.38;;
13832;SDS011;6987;19.472;-99.276;2022-10-03T06:19:03;16.25;;;14.55;;
13832;SDS011;6987;19.472;-99.276;2022-10-03T06:21:48;18.83;;;15.32;;
13832;SDS011;6987;19.472;-99.276;2022-10-03T06:24:33;16.67;;;14.93;;
13832;SDS011;6987;19.472;-99.276;2022-10-03T06:27:19;16.95;;;15.27;;
13832;SDS011;6987;19.472;-99.276;2022-10-03T06:44:05;16.73;;;14.82;;
13832;SDS011;6987;19.472;-99.276;2022-10-03T06:46:42;21.10;;;14.27;;
13832;SDS011;6987;19.472;-99.276;2022-10-03T06:49:20;16.30;;;14.70;;
13832;SDS011;6987;19.472;-99.276;2022-10-03T06:52:06;15.52;;;13.88;;
13832;SDS011;6987;19.472;-99.276;2022-10-03T07:00:15;14.82;;;13.05;;
13832;SDS011;6987;19.472;-99.276;2022-10-03T07:02:59;17.73;;;13.57;;
13832;SDS011;6987;19.472;-99.276;2022-10-03T07:05:38;18.80;;;14.50;;
13832;SDS011;6987;19.472;-99.276;2022-10-03T07:08:26;13.48;;;12.13;;
13832;SDS011;6987;19.472;-99.276;2022-10-03T07:11:05;14.02;;;12.52;;
13832;SDS011;6987;19.472;-99.276;2022-10-03T07:13:38;13.60;;;12.23;;
13832;SDS011;6987;19.472;-99.276;2022-10-03T07:16:28;13.40;;;12.07;;
13832;SDS011;6987;19.472;-99.276;2022-10-03T07:19:10;15.57;;;12.18;;
13832;SDS011;6987;19.472;-99.276;2022-10-03T07:24:33;12.52;;;11.23;;
13832;SDS011;6987;19.472;-99.276;2022-10-03T07:27:25;14.65;;;12.63;;
13832;SDS011;6987;19.472;-99.276;2022-10-03T07:30:07;13.82;;;10.70;;
13832;SDS011;6987;19.472;-99.276;2022-10-03T07:44:13;13.95;;;10.52;;
13832;SDS011;6987;19.472;-99.276;2022-10-03T08:00:48;11.27;;;10.18;;
13832;SDS011;6987;19.472;-99.276;2022-10-03T08:06:17;10.80;;;9.80;;
13832;SDS011;6987;19.472;-99.276;2022-10-03T08:14:24;11.00;;;9.90;;
13832;SDS011;6987;19.472;-99.276;2022-10-03T08:17:10;11.82;;;10.63;;
13832;SDS011;6987;19.472;-99.276;2022-10-03T08:19:50;12.50;;;10.18;;
13832;SDS011;6987;19.472;-99.276;2022-10-03T08:22:30;10.52;;;9.43;;
13832;SDS011;6987;19.472;-99.276;2022-10-03T08:25:09;10.95;;;9.85;;
13832;SDS011;6987;19.472;-99.276;2022-10-03T08:27:59;10.00;;;9.10;;
13832;SDS011;6987;19.472;-99.276;2022-10-03T08:30:32;11.02;;;9.57;;
13832;SDS011;6987;19.472;-99.276;2022-10-03T08:36:08;10.82;;;9.73;;
13832;SDS011;6987;19.472;-99.276;2022-10-03T08:38:51;11.20;;;10.10;;
13832;SDS011;6987;19.472;-99.276;2022-10-03T08:47:26;10.18;;;9.15;;
13832;SDS011;6987;19.472;-99.276;2022-10-03T08:52:55;12.50;;;10.35;;
13832;SDS011;6987;19.472;-99.276;2022-10-03T08:55:30;10.80;;;9.65;;
13832;SDS011;6987;19.472;-99.276;2022-10-03T09:00:58;11.73;;;10.52;;
13832;SDS011;6987;19.472;-99.276;2022-10-03T09:03:54;11.85;;;10.60;;
13832;SDS011;6987;19.472;-99.276;2022-10-03T09:20:42;11.38;;;10.27;;
13832;SDS011;6987;19.472;-99.276;2022-10-03T09:23:30;13.07;;;10.65;;
13832;SDS011;6987;19.472;-99.276;2022-10-03T09:26:10;12.32;;;11.07;;
13832;SDS011;6987;19.472;-99.276;2022-10-03T09:31:36;13.95;;;10.93;;
13832;SDS011;6987;19.472;-99.276;2022-10-03T09:34:12;14.65;;;11.35;;
13832;SDS011;6987;19.472;-99.276;2022-10-03T09:42:38;13.55;;;11.48;;
13832;SDS011;6987;19.472;-99.276;2022-10-03T09:48:03;12.88;;;11.02;;
13832;SDS011;6987;19.472;-99.276;2022-10-03T09:50:43;13.38;;;11.90;;
13832;SDS011;6987;19.472;-99.276;2022-10-03T09:56:35;13.88;;;11.23;;
13832;SDS011;6987;19.472;-99.276;2022-10-03T09:59:17;13.75;;;11.18;;
13832;SDS011;6987;19.472;-99.276;2022-10-03T10:01:50;12.60;;;11.32;;
13832;SDS011;6987;19.472;-99.276;2022-10-03T10:04:31;13.10;;;11.90;;
13832;SDS011;6987;19.472;-99.276;2022-10-03T10:10:03;14.55;;;13.10;;
13832;SDS011;6987;19.472;-99.276;2022-10-03T10:12:50;13.10;;;11.75;;
13832;SDS011;6987;19.472;-99.276;2022-10-03T10:18:20;13.50;;;12.13;;
13832;SDS011;6987;19.472;-99.276;2022-10-03T10:23:44;13.75;;;12.35;;
13832;SDS011;6987;19.472;-99.276;2022-10-03T10:26:37;13.57;;;12.00;;
13832;SDS011;6987;19.472;-99.276;2022-10-03T10:29:16;13.52;;;12.32;;
13832;SDS011;6987;19.472;-99.276;2022-10-03T10:37:34;15.60;;;12.70;;
13832;SDS011;6987;19.472;-99.276;2022-10-03T10:45:52;14.43;;;12.95;;
13832;SDS011;6987;19.472;-99.276;2022-10-03T10:51:27;14.38;;;12.88;;
13832;SDS011;6987;19.472;-99.276;2022-10-03T10:54:16;14.98;;;13.27;;
13832;SDS011;6987;19.472;-99.276;2022-10-03T10:57:03;14.48;;;13.07;;
13832;SDS011;6987;19.472;-99.276;2022-10-03T11:11:41;14.40;;;12.90;;
13832;SDS011;6987;19.472;-99.276;2022-10-03T11:14:26;14.27;;;12.80;;
13832;SDS011;6987;19.472;-99.276;2022-10-03T11:17:23;13.75;;;12.30;;
13832;SDS011;6987;19.472;-99.276;2022-10-03T11:20:08;15.52;;;13.90;;
13832;SDS011;6987;19.472;-99.276;2022-10-03T11:22:55;16.33;;;12.45;;
13832;SDS011;6987;19.472;-99.276;2022-10-03T11:25:35;14.02;;;12.48;;
13832;SDS011;6987;19.472;-99.276;2022-10-03T11:39:24;22.65;;;19.63;;
13832;SDS011;6987;19.472;-99.276;2022-10-03T11:41:58;28.60;;;22.67;;
13832;SDS011;6987;19.472;-99.276;2022-10-03T11:44:29;28.98;;;21.10;;
13832;SDS011;6987;19.472;-99.276;2022-10-03T11:49:43;23.80;;;20.75;;
13832;SDS011;6987;19.472;-99.276;2022-10-03T11:52:22;32.58;;;23.80;;
13832;SDS011;6987;19.472;-99.276;2022-10-03T11:55:05;27.35;;;21.42;;
13832;SDS011;6987;19.472;-99.276;2022-10-03T11:57:37;26.75;;;23.33;;
13832;SDS011;6987;19.472;-99.276;2022-10-03T12:00:09;37.88;;;23.85;;
13832;SDS011;6987;19.472;-99.276;2022-10-03T12:02:52;27.33;;;22.08;;
13832;SDS011;6987;19.472;-99.276;2022-10-03T12:05:26;44.72;;;25.17;;
13832;SDS011;6987;19.472;-99.276;2022-10-03T12:08:05;32.90;;;23.73;;
13832;SDS011;6987;19.472;-99.276;2022-10-03T12:10:57;29.95;;;22.38;;
13832;SDS011;6987;19.472;-99.276;2022-10-03T12:13:32;35.28;;;22.77;;
13832;SDS011;6987;19.472;-99.276;2022-10-03T12:16:04;34.22;;;21.52;;
13832;SDS011;6987;19.472;-99.276;2022-10-03T12:18:48;30.30;;;20.77;;
13832;SDS011;6987;19.472;-99.276;2022-10-03T12:21:18;22.42;;;19.98;;
13832;SDS011;6987;19.472;-99.276;2022-10-03T12:23:54;27.20;;;20.20;;
13832;SDS011;6987;19.472;-99.276;2022-10-03T12:26:27;25.30;;;19.50;;
13832;SDS011;6987;19.472;-99.276;2022-10-03T12:28:58;29.25;;;19.77;;
13832;SDS011;6987;19.472;-99.276;2022-10-03T12:31:29;32.83;;;20.38;;
13832;SDS011;6987;19.472;-99.276;2022-10-03T12:34:02;29.48;;;21.08;;
13832;SDS011;6987;19.472;-99.276;2022-10-03T12:36:43;25.52;;;19.42;;
13832;SDS011;6987;19.472;-99.276;2022-10-03T12:39:17;24.73;;;18.35;;
13832;SDS011;6987;19.472;-99.276;2022-10-03T12:42:00;22.90;;;18.00;;
13832;SDS011;6987;19.472;-99.276;2022-10-03T12:44:36;21.27;;;16.77;;
13832;SDS011;6987;19.472;-99.276;2022-10-03T12:47:13;24.00;;;17.75;;
13832;SDS011;6987;19.472;-99.276;2022-10-03T12:49:50;23.40;;;17.35;;
13832;SDS011;6987;19.472;-99.276;2022-10-03T12:52:22;21.08;;;17.33;;
13832;SDS011;6987;19.472;-99.276;2022-10-03T12:54:54;20.48;;;16.77;;
13832;SDS011;6987;19.472;-99.276;2022-10-03T13:00:15;26.05;;;17.23;;
13832;SDS011;6987;19.472;-99.276;2022-10-03T13:02:46;24.70;;;15.90;;
13832;SDS011;6987;19.472;-99.276;2022-10-03T13:05:31;25.65;;;15.80;;
13832;SDS011;6987;19.472;-99.276;2022-10-03T13:08:02;22.88;;;15.80;;
13832;SDS011;6987;19.472;-99.276;2022-10-03T13:10:34;31.70;;;16.98;;
13832;SDS011;6987;19.472;-99.276;2022-10-03T13:16:10;22.95;;;16.98;;
13832;SDS011;6987;19.472;-99.276;2022-10-03T13:18:42;20.08;;;14.63;;
13832;SDS011;6987;19.472;-99.276;2022-10-03T13:21:14;20.80;;;15.55;;
13832;SDS011;6987;19.472;-99.276;2022-10-03T13:23:46;25.98;;;15.60;;
13832;SDS011;6987;19.472;-99.276;2022-10-03T13:26:17;32.72;;;16.75;;
13832;SDS011;6987;19.472;-99.276;2022-10-03T13:29:07;24.40;;;17.70;;
13832;SDS011;6987;19.472;-99.276;2022-10-03T13:31:46;19.67;;;15.30;;
13832;SDS011;6987;19.472;-99.276;2022-10-03T13:34:19;23.35;;;15.90;;
13832;SDS011;6987;19.472;-99.276;2022-10-03T13:36:49;24.83;;;16.35;;
13832;SDS011;6987;19.472;-99.276;2022-10-03T13:39:21;21.48;;;16.90;;
13832;SDS011;6987;19.472;-99.276;2022-10-03T13:42:05;24.50;;;17.50;;
13832;SDS011;6987;19.472;-99.276;2022-10-03T13:44:36;17.83;;;15.57;;
13832;SDS011;6987;19.472;-99.276;2022-10-03T13:47:18;21.83;;;15.43;;
13832;SDS011;6987;19.472;-99.276;2022-10-03T13:49:52;18.83;;;15.90;;
13832;SDS011;6987;19.472;-99.276;2022-10-03T13:52:25;17.75;;;15.57;;
13832;SDS011;6987;19.472;-99.276;2022-10-03T13:55:09;20.85;;;17.23;;
13832;SDS011;6987;19.472;-99.276;2022-10-03T13:57:44;20.98;;;16.92;;
13832;SDS011;6987;19.472;-99.276;2022-10-03T14:00:14;20.73;;;16.27;;
13832;SDS011;6987;19.472;-99.276;2022-10-03T14:05:36;22.10;;;17.27;;
13832;SDS011;6987;19.472;-99.276;2022-10-03T14:08:10;23.77;;;17.92;;
13832;SDS011;6987;19.472;-99.276;2022-10-03T14:10:54;23.67;;;17.42;;
13832;SDS011;6987;19.472;-99.276;2022-10-03T14:13:29;21.58;;;17.00;;
13832;SDS011;6987;19.472;-99.276;2022-10-03T14:16:00;18.40;;;16.10;;
13832;SDS011;6987;19.472;-99.276;2022-10-03T14:18:38;22.25;;;17.20;;
13832;SDS011;6987;19.472;-99.276;2022-10-03T14:24:02;22.15;;;17.15;;
13832;SDS011;6987;19.472;-99.276;2022-10-03T14:26:34;26.13;;;19.55;;
13832;SDS011;6987;19.472;-99.276;2022-10-03T14:29:07;24.50;;;19.23;;
13832;SDS011;6987;19.472;-99.276;2022-10-03T14:31:43;23.77;;;19.98;;
13832;SDS011;6987;19.472;-99.276;2022-10-03T14:34:19;28.75;;;21.45;;
13832;SDS011;6987;19.472;-99.276;2022-10-03T14:36:53;26.85;;;20.98;;
13832;SDS011;6987;19.472;-99.276;2022-10-03T14:39:31;27.77;;;21.52;;
13832;SDS011;6987;19.472;-99.276;2022-10-03T14:42:08;33.88;;;22.25;;
13832;SDS011;6987;19.472;-99.276;2022-10-03T14:44:43;28.75;;;22.15;;
13832;SDS011;6987;19.472;-99.276;2022-10-03T14:47:13;37.95;;;22.42;;
13832;SDS011;6987;19.472;-99.276;2022-10-03T14:49:46;31.80;;;23.73;;
13832;SDS011;6987;19.472;-99.276;2022-10-03T14:52:18;26.52;;;22.60;;
13832;SDS011;6987;19.472;-99.276;2022-10-03T14:54:50;32.80;;;23.50;;
13832;SDS011;6987;19.472;-99.276;2022-10-03T14:57:25;30.85;;;24.40;;
13832;SDS011;6987;19.472;-99.276;2022-10-03T14:59:58;35.83;;;24.17;;
13832;SDS011;6987;19.472;-99.276;2022-10-03T15:02:28;33.15;;;24.27;;
13832;SDS011;6987;19.472;-99.276;2022-10-03T15:05:00;33.55;;;25.52;;
13832;SDS011;6987;19.472;-99.276;2022-10-03T15:07:31;36.58;;;25.38;;
13832;SDS011;6987;19.472;-99.276;2022-10-03T15:10:03;43.85;;;26.08;;
13832;SDS011;6987;19.472;-99.276;2022-10-03T15:12:35;30.45;;;24.98;;
13832;SDS011;6987;19.472;-99.276;2022-10-03T15:15:06;32.85;;;26.10;;
13832;SDS011;6987;19.472;-99.276;2022-10-03T15:17:42;33.78;;;27.50;;
13832;SDS011;6987;19.472;-99.276;2022-10-03T15:20:12;43.15;;;29.30;;
13832;SDS011;6987;19.472;-99.276;2022-10-03T15:22:46;36.35;;;26.88;;
13832;SDS011;6987;19.472;-99.276;2022-10-03T15:25:19;34.30;;;27.42;;
13832;SDS011;6987;19.472;-99.276;2022-10-03T15:27:49;34.95;;;28.02;;
13832;SDS011;6987;19.472;-99.276;2022-10-03T15:30:20;39.38;;;27.88;;
13832;SDS011;6987;19.472;-99.276;2022-10-03T15:32:54;38.25;;;27.52;;
13832;SDS011;6987;19.472;-99.276;2022-10-03T15:35:28;40.22;;;29.88;;
13832;SDS011;6987;19.472;-99.276;2022-10-03T15:38:01;40.10;;;28.85;;
13832;SDS011;6987;19.472;-99.276;2022-10-03T15:40:34;38.97;;;29.08;;
13832;SDS011;6987;19.472;-99.276;2022-10-03T15:43:04;41.05;;;31.75;;
13832;SDS011;6987;19.472;-99.276;2022-10-03T15:45:34;44.08;;;28.98;;
13832;SDS011;6987;19.472;-99.276;2022-10-03T15:48:04;42.45;;;30.95;;
13832;SDS011;6987;19.472;-99.276;2022-10-03T15:50:38;43.47;;;30.70;;
13832;SDS011;6987;19.472;-99.276;2022-10-03T15:53:11;39.38;;;30.65;;
13832;SDS011;6987;19.472;-99.276;2022-10-03T15:55:43;41.58;;;31.27;;
13832;SDS011;6987;19.472;-99.276;2022-10-03T15:58:16;42.75;;;29.42;;
13832;SDS011;6987;19.472;-99.276;2022-10-03T16:00:50;35.88;;;29.65;;
13832;SDS011;6987;19.472;-99.276;2022-10-03T16:03:22;45.28;;;30.75;;
13832;SDS011;6987;19.472;-99.276;2022-10-03T16:05:55;48.20;;;31.88;;
13832;SDS011;6987;19.472;-99.276;2022-10-03T16:08:28;45.17;;;31.85;;
13832;SDS011;6987;19.472;-99.276;2022-10-03T16:11:01;35.92;;;28.63;;
13832;SDS011;6987;19.472;-99.276;2022-10-03T16:13:34;38.60;;;28.60;;
13832;SDS011;6987;19.472;-99.276;2022-10-03T16:16:14;39.95;;;30.63;;
13832;SDS011;6987;19.472;-99.276;2022-10-03T16:18:46;38.03;;;27.95;;
13832;SDS011;6987;19.472;-99.276;2022-10-03T16:21:20;43.58;;;30.38;;
13832;SDS011;6987;19.472;-99.276;2022-10-03T16:23:50;47.25;;;30.05;;
13832;SDS011;6987;19.472;-99.276;2022-10-03T16:26:23;44.78;;;30.33;;
13832;SDS011;6987;19.472;-99.276;2022-10-03T16:28:56;39.25;;;29.27;;
13832;SDS011;6987;19.472;-99.276;2022-10-03T16:31:29;48.25;;;31.15;;
13832;SDS011;6987;19.472;-99.276;2022-10-03T16:34:03;37.42;;;29.35;;
13832;SDS011;6987;19.472;-99.276;2022-10-03T16:36:40;41.97;;;29.80;;
13832;SDS011;6987;19.472;-99.276;2022-10-03T16:39:14;38.15;;;31.02;;
13832;SDS011;6987;19.472;-99.276;2022-10-03T16:41:47;43.67;;;31.58;;
13832;SDS011;6987;19.472;-99.276;2022-10-03T16:44:20;48.53;;;33.78;;
13832;SDS011;6987;19.472;-99.276;2022-10-03T16:46:51;40.15;;;32.92;;
13832;SDS011;6987;19.472;-99.276;2022-10-03T16:49:34;40.72;;;30.88;;
13832;SDS011;6987;19.472;-99.276;2022-10-03T16:52:20;40.58;;;30.98;;
13832;SDS011;6987;19.472;-99.276;2022-10-03T16:54:56;45.72;;;31.42;;
13832;SDS011;6987;19.472;-99.276;2022-10-03T16:57:30;50.55;;;34.67;;
13832;SDS011;6987;19.472;-99.276;2022-10-03T16:59:59;44.50;;;33.67;;
13832;SDS011;6987;19.472;-99.276;2022-10-03T17:02:32;44.45;;;32.75;;
13832;SDS011;6987;19.472;-99.276;2022-10-03T17:05:06;53.13;;;36.17;;
13832;SDS011;6987;19.472;-99.276;2022-10-03T17:07:37;44.25;;;32.70;;
13832;SDS011;6987;19.472;-99.276;2022-10-03T17:10:16;43.92;;;33.10;;
13832;SDS011;6987;19.472;-99.276;2022-10-03T17:12:50;42.28;;;31.05;;
13832;SDS011;6987;19.472;-99.276;2022-10-03T17:15:20;45.65;;;31.50;;
13832;SDS011;6987;19.472;-99.276;2022-10-03T17:17:50;42.55;;;31.55;;
13832;SDS011;6987;19.472;-99.276;2022-10-03T17:20:28;46.95;;;32.65;;
13832;SDS011;6987;19.472;-99.276;2022-10-03T17:23:00;48.05;;;33.75;;
13832;SDS011;6987;19.472;-99.276;2022-10-03T17:25:33;51.35;;;35.08;;
13832;SDS011;6987;19.472;-99.276;2022-10-03T17:28:06;50.67;;;36.50;;
13832;SDS011;6987;19.472;-99.276;2022-10-03T17:30:41;50.22;;;32.63;;
13832;SDS011;6987;19.472;-99.276;2022-10-03T17:33:13;41.53;;;28.67;;
13832;SDS011;6987;19.472;-99.276;2022-10-03T17:35:44;51.65;;;30.58;;
13832;SDS011;6987;19.472;-99.276;2022-10-03T17:38:21;42.75;;;31.25;;
13832;SDS011;6987;19.472;-99.276;2022-10-03T17:40:55;41.38;;;29.10;;
13832;SDS011;6987;19.472;-99.276;2022-10-03T17:43:32;43.53;;;31.38;;
13832;SDS011;6987;19.472;-99.276;2022-10-03T17:46:03;43.88;;;28.27;;
13832;SDS011;6987;19.472;-99.276;2022-10-03T17:48:36;39.25;;;31.05;;
13832;SDS011;6987;19.472;-99.276;2022-10-03T17:51:20;36.10;;;28.05;;
13832;SDS011;6987;19.472;-99.276;2022-10-03T17:53:50;41.45;;;27.55;;
13832;SDS011;6987;19.472;-99.276;2022-10-03T17:56:20;40.17;;;27.73;;
13832;SDS011;6987;19.472;-99.276;2022-10-03T17:58:59;40.45;;;29.58;;
13832;SDS011;6987;19.472;-99.276;2022-10-03T18:01:30;32.72;;;25.25;;
13832;SDS011;6987;19.472;-99.276;2022-10-03T18:04:02;35.72;;;26.50;;
13832;SDS011;6987;19.472;-99.276;2022-10-03T18:06:37;38.17;;;26.10;;
13832;SDS011;6987;19.472;-99.276;2022-10-03T18:09:07;35.08;;;24.67;;
13832;SDS011;6987;19.472;-99.276;2022-10-03T18:11:37;34.20;;;25.40;;
13832;SDS011;6987;19.472;-99.276;2022-10-03T18:14:11;36.13;;;24.60;;
13832;SDS011;6987;19.472;-99.276;2022-10-03T18:16:42;31.52;;;22.60;;
13832;SDS011;6987;19.472;-99.276;2022-10-03T18:19:27;30.30;;;21.95;;
13832;SDS011;6987;19.472;-99.276;2022-10-03T18:21:59;22.15;;;17.17;;
13832;SDS011;6987;19.472;-99.276;2022-10-03T18:27:41;13.90;;;11.60;;
13832;SDS011;6987;19.472;-99.276;2022-10-03T18:30:18;18.17;;;13.27;;
13832;SDS011;6987;19.472;-99.276;2022-10-03T18:32:47;14.45;;;11.85;;
13832;SDS011;6987;19.472;-99.276;2022-10-03T18:35:19;17.33;;;13.88;;
13832;SDS011;6987;19.472;-99.276;2022-10-03T18:40:35;20.02;;;13.63;;